createdAt,value
2023-01-03T00:01:40.899Z,10.05
2023-01-03T00:04:10.246Z,6.60
2023-01-03T00:06:43.935Z,6.25
2023-01-03T00:09:14.667Z,10.55
2023-01-03T00:12:02.844Z,8.18
2023-01-03T00:14:36.329Z,8.23
2023-01-03T00:17:06.491Z,6.05
2023-01-03T00:19:40.466Z,9.25
2023-01-03T00:22:09.032Z,6.15
2023-01-03T00:24:37.117Z,7.15
2023-01-03T00:27:05.040Z,7.57
2023-01-03T00:29:33.263Z,5.72
2023-01-03T00:32:01.202Z,6.47
2023-01-03T00:34:29.202Z,6.88
2023-01-03T00:36:57.059Z,7.95
2023-01-03T00:39:25.474Z,7.18
2023-01-03T00:41:53.974Z,9.32
2023-01-03T00:44:22.028Z,12.63
2023-01-03T00:46:49.895Z,10.25
2023-01-03T00:49:17.766Z,11.18
2023-01-03T00:51:45.891Z,4.93
2023-01-03T00:54:15.233Z,12.77
2023-01-03T00:56:45.869Z,12.90
2023-01-03T00:59:15.199Z,11.57
2023-01-03T01:01:49.704Z,15.80
2023-01-03T01:04:28.218Z,16.40
2023-01-03T01:07:00.515Z,10.90
2023-01-03T01:09:35.051Z,8.82
2023-01-03T01:12:04.900Z,11.60
2023-01-03T01:14:33.850Z,8.75
2023-01-03T01:17:08.002Z,8.52
2023-01-03T01:19:40.195Z,9.70
2023-01-03T01:22:09.105Z,10.48
2023-01-03T01:24:37.243Z,10.20
2023-01-03T01:27:05.561Z,8.63
2023-01-03T01:29:33.660Z,11.68
2023-01-03T01:32:01.882Z,9.18
2023-01-03T01:34:30.411Z,14.10
2023-01-03T01:36:58.434Z,11.13
2023-01-03T01:39:28.099Z,13.07
2023-01-03T01:42:23.168Z,14.77
2023-01-03T01:45:05.094Z,10.73
2023-01-03T01:47:51.239Z,9.98
2023-01-03T01:50:31.971Z,10.68
2023-01-03T01:53:15.614Z,14.70
2023-01-03T01:55:59.947Z,9.23
2023-01-03T01:58:33.471Z,8.90
2023-01-03T02:01:01.516Z,16.63
2023-01-03T02:03:29.472Z,13.02
2023-01-03T02:05:57.730Z,10.10
2023-01-03T02:08:25.570Z,13.63
2023-01-03T02:11:27.582Z,12.40
2023-01-03T02:14:33.291Z,10.25
2023-01-03T02:17:52.496Z,11.57
2023-01-03T02:20:23.364Z,14.93
2023-01-03T02:23:21.066Z,11.60
2023-01-03T02:26:23.725Z,19.85
2023-01-03T02:29:05.817Z,15.18
2023-01-03T02:32:04.170Z,12.43
2023-01-03T02:35:04.099Z,15.65
2023-01-03T02:37:37.665Z,16.55
2023-01-03T02:40:39.240Z,18.48
2023-01-03T02:43:18.263Z,19.58
2023-01-03T02:46:16.636Z,12.20
2023-01-03T02:49:08.315Z,16.73
2023-01-03T02:54:18.697Z,19.80
2023-01-03T02:56:59.387Z,19.92
2023-01-03T02:59:38.454Z,14.48
2023-01-03T03:02:09.245Z,18.05
2023-01-03T03:04:37.619Z,17.73
2023-01-03T03:07:19.579Z,18.48
2023-01-03T03:10:06.555Z,16.45
2023-01-03T03:12:55.908Z,21.45
2023-01-03T03:15:31.738Z,21.48
2023-01-03T03:18:07.396Z,20.08
2023-01-03T03:20:54.001Z,20.67
2023-01-03T03:23:45.462Z,18.70
2023-01-03T03:28:49.156Z,15.95
2023-01-03T03:31:30.542Z,20.27
2023-01-03T03:34:18.307Z,17.65
2023-01-03T03:37:00.454Z,17.13
2023-01-03T03:39:48.619Z,21.35
2023-01-03T03:43:13.498Z,17.75
2023-01-03T03:46:07.534Z,18.30
2023-01-03T03:49:05.844Z,18.50
2023-01-03T03:51:37.933Z,17.88
2023-01-03T03:54:10.711Z,15.02
2023-01-03T03:56:38.951Z,20.73
2023-01-03T03:59:08.525Z,21.70
2023-01-03T04:01:39.358Z,16.60
2023-01-03T04:04:16.440Z,16.88
2023-01-03T04:06:50.586Z,16.67
2023-01-03T04:09:18.939Z,20.10
2023-01-03T04:11:46.869Z,25.48
2023-01-03T04:14:14.781Z,27.30
2023-01-03T04:16:42.732Z,34.22
2023-01-03T04:19:10.677Z,18.63
2023-01-03T04:21:38.634Z,22.58
2023-01-03T04:24:06.855Z,19.17
2023-01-03T04:26:34.856Z,22.30
2023-01-03T04:29:02.809Z,19.80
2023-01-03T04:31:30.984Z,18.10
2023-01-03T04:33:58.871Z,19.48
2023-01-03T04:36:26.784Z,15.35
2023-01-03T04:38:54.672Z,16.48
2023-01-03T04:41:22.598Z,16.63
2023-01-03T04:44:02.530Z,17.38
2023-01-03T04:46:33.673Z,18.95
2023-01-03T04:51:29.936Z,16.70
2023-01-03T04:53:57.929Z,18.15
2023-01-03T04:56:32.328Z,24.88
2023-01-03T04:59:01.396Z,20.58
2023-01-03T05:01:29.499Z,23.80
2023-01-03T05:04:00.217Z,17.63
2023-01-03T05:06:29.375Z,23.52
2023-01-03T05:08:57.405Z,20.77
2023-01-03T05:11:25.578Z,19.85
2023-01-03T05:13:53.489Z,20.35
2023-01-03T05:16:21.523Z,20.30
2023-01-03T05:18:51.342Z,20.83
2023-01-03T05:21:39.941Z,17.42
2023-01-03T05:24:28.567Z,25.85
2023-01-03T05:26:58.750Z,24.05
2023-01-03T05:29:28.834Z,22.75
2023-01-03T05:31:57.115Z,29.67
2023-01-03T05:34:25.073Z,30.70
2023-01-03T05:36:52.968Z,23.58
2023-01-03T05:39:20.834Z,17.38
2023-01-03T05:42:00.739Z,23.27
2023-01-03T05:44:31.673Z,20.65
2023-01-03T05:47:01.700Z,21.27
2023-01-03T05:49:29.719Z,23.15
2023-01-03T05:51:57.674Z,28.35
2023-01-03T05:54:25.894Z,21.45
2023-01-03T05:56:53.774Z,21.15
2023-01-03T05:59:22.587Z,21.00
2023-01-03T06:01:51.084Z,27.58
2023-01-03T06:04:19.413Z,19.25
2023-01-03T06:06:48.627Z,26.02
2023-01-03T06:09:16.741Z,20.52
2023-01-03T06:11:44.751Z,20.52
2023-01-03T06:14:13.045Z,17.67
2023-01-03T06:16:59.585Z,20.48
2023-01-03T06:19:27.628Z,20.38
2023-01-03T06:21:55.557Z,20.17
2023-01-03T06:24:23.498Z,16.35
2023-01-03T06:26:51.358Z,19.70
2023-01-03T06:29:19.280Z,18.60
2023-01-03T06:31:47.504Z,16.27
2023-01-03T06:34:16.046Z,18.58
2023-01-03T06:36:45.563Z,21.02
2023-01-03T06:39:13.547Z,18.95
2023-01-03T06:41:41.488Z,18.75
2023-01-03T06:44:11.141Z,13.95
2023-01-03T06:46:57.546Z,29.42
2023-01-03T06:49:43.927Z,18.77
2023-01-03T06:52:35.003Z,16.08
2023-01-03T06:55:03.079Z,18.40
2023-01-03T06:57:31.035Z,19.55
2023-01-03T06:59:58.959Z,17.48
2023-01-03T07:02:27.258Z,17.60
2023-01-03T07:04:55.411Z,17.13
2023-01-03T07:07:23.284Z,20.95
2023-01-03T07:09:51.424Z,21.65
2023-01-03T07:12:38.338Z,21.50
2023-01-03T07:15:06.758Z,21.15
2023-01-03T07:17:34.705Z,19.35
2023-01-03T07:20:02.583Z,16.65
2023-01-03T07:22:30.517Z,23.00
2023-01-03T07:24:58.397Z,22.30
2023-01-03T07:27:26.283Z,26.48
2023-01-03T07:29:54.108Z,25.17
2023-01-03T07:32:22.072Z,21.45
2023-01-03T07:34:49.943Z,18.25
2023-01-03T07:37:19.091Z,24.00
2023-01-03T07:39:50.439Z,22.65
2023-01-03T07:42:37.077Z,21.30
2023-01-03T07:45:05.637Z,19.58
2023-01-03T07:47:33.538Z,16.98
2023-01-03T07:50:01.421Z,25.25
2023-01-03T07:52:29.284Z,19.85
2023-01-03T07:54:57.102Z,18.30
2023-01-03T07:57:25.005Z,20.23
2023-01-03T07:59:52.850Z,23.52
2023-01-03T08:02:20.859Z,24.25
2023-01-03T08:04:49.032Z,17.52
2023-01-03T08:07:16.998Z,21.35
2023-01-03T08:10:03.292Z,19.40
2023-01-03T08:12:49.732Z,17.38
2023-01-03T08:15:17.668Z,23.00
2023-01-03T08:17:45.526Z,22.80
2023-01-03T08:20:13.448Z,21.52
2023-01-03T08:22:42.596Z,16.77
2023-01-03T08:25:10.499Z,23.08
2023-01-03T08:27:38.415Z,20.17
2023-01-03T08:30:06.941Z,19.42
2023-01-03T08:32:35.211Z,22.15
2023-01-03T08:35:03.993Z,25.33
2023-01-03T08:37:31.953Z,20.48
2023-01-03T08:40:03.659Z,23.23
2023-01-03T08:42:32.392Z,23.35
2023-01-03T08:45:08.453Z,26.65
2023-01-03T08:47:36.421Z,19.95
2023-01-03T08:50:05.238Z,31.75
2023-01-03T08:52:35.415Z,26.08
2023-01-03T08:55:04.279Z,31.13
2023-01-03T08:57:32.243Z,24.35
2023-01-03T09:00:00.211Z,28.30
2023-01-03T09:02:28.168Z,29.55
2023-01-03T09:04:56.339Z,24.27
2023-01-03T09:07:24.249Z,27.02
2023-01-03T09:09:52.088Z,26.05
2023-01-03T09:12:20.044Z,24.02
2023-01-03T09:14:47.888Z,28.27
2023-01-03T09:17:15.858Z,26.23
2023-01-03T09:19:43.781Z,29.00
2023-01-03T09:22:11.631Z,33.03
2023-01-03T09:24:39.526Z,22.55
2023-01-03T09:27:07.369Z,23.08
2023-01-03T09:29:35.215Z,26.55
2023-01-03T09:32:03.596Z,21.25
2023-01-03T09:34:31.711Z,21.38
2023-01-03T09:36:59.590Z,27.45
2023-01-03T09:39:27.504Z,26.65
2023-01-03T09:42:13.815Z,25.50
2023-01-03T09:44:41.856Z,24.83
2023-01-03T09:47:21.503Z,29.52
2023-01-03T09:50:26.215Z,25.40
2023-01-03T09:53:02.820Z,25.85
2023-01-03T09:56:16.764Z,27.17
2023-01-03T09:59:32.589Z,24.75
2023-01-03T10:02:46.612Z,25.45
2023-01-03T10:05:40.484Z,20.83
2023-01-03T10:08:47.464Z,20.98
2023-01-03T10:11:44.685Z,25.73
2023-01-03T10:14:53.063Z,23.10
2023-01-03T10:17:33.827Z,24.20
2023-01-03T10:20:14.252Z,22.42
2023-01-03T10:22:42.404Z,18.17
2023-01-03T10:25:19.076Z,30.27
2023-01-03T10:27:59.775Z,17.35
2023-01-03T10:30:30.331Z,19.75
2023-01-03T10:33:37.952Z,18.42
2023-01-03T10:36:07.937Z,19.17
2023-01-03T10:38:44.762Z,15.43
2023-01-03T10:41:34.089Z,20.63
2023-01-03T10:44:04.435Z,16.52
2023-01-03T10:46:32.556Z,17.40
2023-01-03T10:49:30.016Z,13.45
2023-01-03T10:52:12.624Z,15.20
2023-01-03T10:54:43.683Z,11.48
2023-01-03T10:57:42.653Z,16.40
2023-01-03T11:00:26.778Z,10.27
2023-01-03T11:02:57.051Z,11.35
2023-01-03T11:05:26.558Z,13.03
2023-01-03T11:08:01.991Z,8.18
2023-01-03T11:10:54.205Z,11.00
2023-01-03T11:13:38.112Z,8.75
2023-01-03T11:16:18.814Z,9.88
2023-01-03T11:19:03.482Z,10.30
2023-01-03T11:22:35.544Z,10.32
2023-01-03T11:25:16.610Z,9.02
2023-01-03T11:28:21.245Z,9.15
2023-01-03T11:31:08.359Z,12.30
2023-01-03T11:33:59.169Z,8.15
2023-01-03T11:37:10.105Z,13.02
2023-01-03T11:39:47.190Z,9.77
2023-01-03T11:42:18.121Z,7.68
2023-01-03T11:45:20.247Z,8.82
2023-01-03T11:48:17.861Z,7.53
2023-01-03T11:51:12.351Z,8.60
2023-01-03T11:54:07.430Z,12.27
2023-01-03T11:56:44.678Z,5.97
2023-01-03T11:59:21.724Z,10.48
2023-01-03T12:02:50.074Z,6.85
2023-01-03T12:05:56.319Z,5.25
2023-01-03T12:08:52.376Z,5.18
2023-01-03T12:11:37.596Z,7.53
2023-01-03T12:14:24.673Z,6.75
2023-01-03T12:17:21.752Z,5.25
2023-01-03T12:20:36.877Z,6.18
2023-01-03T12:23:16.920Z,7.35
2023-01-03T12:25:50.508Z,5.57
2023-01-03T12:28:28.462Z,4.38
2023-01-03T12:31:08.736Z,6.40
2023-01-03T12:34:20.746Z,7.30
2023-01-03T12:37:20.874Z,10.48
2023-01-03T12:39:56.495Z,5.50
2023-01-03T12:42:33.134Z,5.65
2023-01-03T12:45:03.881Z,7.38
2023-01-03T12:47:40.829Z,7.13
2023-01-03T12:50:33.681Z,4.80
2023-01-03T12:53:33.584Z,5.65
2023-01-03T12:56:04.408Z,4.95
2023-01-03T12:58:58.680Z,5.47
2023-01-03T13:01:48.692Z,4.57
2023-01-03T13:04:28.915Z,8.57
2023-01-03T13:07:05.864Z,8.02
2023-01-03T13:09:39.531Z,6.97
2023-01-03T13:12:23.044Z,6.18
2023-01-03T13:15:02.908Z,11.40
2023-01-03T13:17:32.231Z,8.70
2023-01-03T13:20:25.352Z,11.95
2023-01-03T13:23:01.207Z,8.68
2023-01-03T13:25:36.583Z,8.75
2023-01-03T13:28:20.517Z,10.55
2023-01-03T13:30:48.625Z,8.15
2023-01-03T13:33:20.459Z,9.48
2023-01-03T13:35:49.449Z,9.98
2023-01-03T13:38:38.943Z,7.85
2023-01-03T13:41:32.280Z,15.52
2023-01-03T13:44:16.367Z,9.75
2023-01-03T13:46:44.866Z,9.27
2023-01-03T13:49:25.594Z,13.07
2023-01-03T13:51:58.536Z,14.70
2023-01-03T13:54:58.156Z,8.43
2023-01-03T13:57:39.318Z,9.27
2023-01-03T14:00:18.831Z,11.38
2023-01-03T14:03:40.063Z,11.63
2023-01-03T14:06:45.174Z,11.65
2023-01-03T14:09:40.717Z,10.50
2023-01-03T14:12:52.234Z,10.90
2023-01-03T14:15:26.482Z,8.20
2023-01-03T14:18:00.186Z,11.70
2023-01-03T14:20:32.801Z,14.57
2023-01-03T14:23:23.912Z,19.55
2023-01-03T14:25:54.648Z,8.70
2023-01-03T14:28:27.401Z,6.60
2023-01-03T14:30:55.410Z,9.95
2023-01-03T14:33:25.379Z,7.25
2023-01-03T14:36:13.647Z,8.40
2023-01-03T14:38:52.381Z,8.40
2023-01-03T14:41:37.747Z,13.35
2023-01-03T14:44:07.700Z,9.48
2023-01-03T14:46:37.310Z,10.27
2023-01-03T14:49:24.084Z,7.80
2023-01-03T14:52:03.386Z,10.02
2023-01-03T14:54:31.502Z,10.43
2023-01-03T14:57:00.883Z,9.10
2023-01-03T14:59:29.235Z,6.22
2023-01-03T15:01:57.329Z,9.50
2023-01-03T15:04:25.508Z,7.35
2023-01-03T15:07:38.810Z,13.43
2023-01-03T15:10:12.564Z,12.70
2023-01-03T15:12:46.054Z,10.98
2023-01-03T15:15:25.457Z,8.38
2023-01-03T15:18:02.285Z,11.40
2023-01-03T15:20:42.694Z,9.38
2023-01-03T15:23:40.614Z,7.25
2023-01-03T15:26:22.936Z,8.90
2023-01-03T15:28:54.059Z,7.68
2023-01-03T15:34:18.824Z,17.65
2023-01-03T15:37:19.322Z,7.33
2023-01-03T15:39:50.540Z,5.93
2023-01-03T15:42:46.042Z,5.97
2023-01-03T15:45:29.192Z,5.82
2023-01-03T15:48:00.629Z,5.68
2023-01-03T15:50:42.528Z,8.07
2023-01-03T15:53:43.783Z,11.88
2023-01-03T15:56:27.815Z,10.02
2023-01-03T15:58:56.812Z,6.05
2023-01-03T16:01:25.647Z,6.30
2023-01-03T16:03:54.153Z,9.35
2023-01-03T16:06:22.237Z,7.50
2023-01-03T16:08:50.237Z,10.07
2023-01-03T16:11:33.409Z,7.80
2023-01-03T16:14:07.580Z,5.32
2023-01-03T16:16:41.003Z,7.50
2023-01-03T16:19:21.841Z,3.45
2023-01-03T16:22:24.562Z,9.70
2023-01-03T16:24:41.588Z,4.13
2023-01-03T16:27:22.003Z,3.25
2023-01-03T16:29:49.588Z,4.40
2023-01-03T16:32:21.161Z,4.63
2023-01-03T16:34:50.231Z,5.53
2023-01-03T16:37:18.188Z,4.30
2023-01-03T16:39:48.611Z,4.22
2023-01-03T16:42:16.894Z,7.05
2023-01-03T16:44:47.946Z,7.35
2023-01-03T16:47:31.217Z,7.32
2023-01-03T16:50:07.597Z,4.10
2023-01-03T16:52:40.047Z,9.35
2023-01-03T16:55:28.331Z,5.80
2023-01-03T16:57:57.277Z,5.05
2023-01-03T17:00:31.318Z,5.25
2023-01-03T17:03:00.788Z,7.78
2023-01-03T17:05:33.227Z,5.43
2023-01-03T17:08:23.014Z,2.63
2023-01-03T17:10:56.819Z,3.00
2023-01-03T17:13:27.733Z,3.75
2023-01-03T17:15:56.801Z,5.18
2023-01-03T17:18:28.818Z,7.70
2023-01-03T17:21:05.093Z,5.20
2023-01-03T17:23:37.978Z,6.25
2023-01-03T17:26:06.289Z,3.10
2023-01-03T17:28:35.139Z,3.55
2023-01-03T17:31:03.128Z,2.60
2023-01-03T17:33:34.217Z,2.20
2023-01-03T17:36:02.493Z,2.13
2023-01-03T17:38:31.200Z,1.83
2023-01-03T17:40:59.184Z,4.40
2023-01-03T17:43:27.563Z,4.60
2023-01-03T17:46:22.611Z,6.43
2023-01-03T17:49:20.769Z,2.88
2023-01-03T17:51:49.263Z,1.75
2023-01-03T17:54:17.449Z,6.80
2023-01-03T17:56:45.346Z,2.70
2023-01-03T17:59:14.409Z,3.22
2023-01-03T18:01:42.581Z,2.70
2023-01-03T18:04:11.007Z,3.17
2023-01-03T18:06:39.410Z,3.00
2023-01-03T18:09:13.252Z,6.15
2023-01-03T18:11:41.516Z,4.85
2023-01-03T18:14:15.955Z,4.07
2023-01-03T18:16:47.607Z,3.95
2023-01-03T18:19:17.969Z,4.30
2023-01-03T18:21:45.889Z,5.75
2023-01-03T18:24:19.725Z,9.50
2023-01-03T18:26:50.209Z,3.85
2023-01-03T18:29:18.510Z,3.33
2023-01-03T18:31:47.013Z,9.10
2023-01-03T18:34:15.128Z,2.67
2023-01-03T18:36:50.129Z,3.72
2023-01-03T18:39:30.533Z,4.25
2023-01-03T18:42:18.909Z,4.60
2023-01-03T18:44:46.852Z,3.83
2023-01-03T18:47:15.423Z,2.83
2023-01-03T18:49:43.424Z,4.38
2023-01-03T18:52:39.374Z,3.90
2023-01-03T18:55:16.995Z,3.85
2023-01-03T18:57:46.472Z,2.70
2023-01-03T19:00:32.447Z,3.95
2023-01-03T19:03:00.904Z,3.60
2023-01-03T19:05:28.931Z,7.00
2023-01-03T19:07:56.859Z,2.42
2023-01-03T19:10:26.293Z,3.45
2023-01-03T19:12:56.598Z,2.47
2023-01-03T19:15:28.390Z,2.67
2023-01-03T19:17:58.996Z,3.05
2023-01-03T19:20:27.489Z,3.40
2023-01-03T19:22:55.792Z,4.30
2023-01-03T19:25:28.277Z,6.93
2023-01-03T19:28:02.564Z,2.20
2023-01-03T19:30:39.415Z,2.47
2023-01-03T19:33:13.031Z,3.42
2023-01-03T19:35:43.658Z,6.18
2023-01-03T19:38:11.630Z,3.05
2023-01-03T19:40:43.482Z,3.08
2023-01-03T19:43:21.574Z,4.25
2023-01-03T19:45:49.922Z,2.42
2023-01-03T19:48:20.894Z,2.35
2023-01-03T19:50:50.070Z,2.85
2023-01-03T19:53:18.039Z,3.55
2023-01-03T19:55:48.072Z,8.15
2023-01-03T19:58:29.809Z,1.92
2023-01-03T20:00:58.251Z,3.58
2023-01-03T20:03:30.141Z,4.25
2023-01-03T20:05:58.755Z,5.85
2023-01-03T20:08:27.212Z,4.63
2023-01-03T20:10:55.484Z,3.70
2023-01-03T20:13:26.199Z,4.10
2023-01-03T20:16:00.097Z,2.72
2023-01-03T20:18:31.985Z,5.97
2023-01-03T20:21:07.169Z,4.68
2023-01-03T20:23:42.825Z,2.65
2023-01-03T20:26:32.355Z,4.45
2023-01-03T20:29:00.665Z,2.50
2023-01-03T20:31:29.747Z,2.97
2023-01-03T20:33:59.186Z,4.85
2023-01-03T20:36:36.537Z,2.40
2023-01-03T20:39:04.486Z,5.28
2023-01-03T20:41:38.200Z,4.93
2023-01-03T20:44:09.521Z,2.22
2023-01-03T20:49:15.595Z,3.83
2023-01-03T20:51:43.825Z,3.97
2023-01-03T20:54:12.044Z,2.65
2023-01-03T20:56:40.216Z,1.75
2023-01-03T20:59:09.498Z,2.35
2023-01-03T21:01:37.565Z,3.33
2023-01-03T21:04:05.544Z,2.22
2023-01-03T21:06:34.390Z,2.17
2023-01-03T21:09:02.347Z,1.33
2023-01-03T21:11:38.894Z,2.97
2023-01-03T21:14:07.377Z,2.25
2023-01-03T21:16:43.663Z,3.63
2023-01-03T21:19:20.839Z,3.85
2023-01-03T21:21:55.025Z,3.47
2023-01-03T21:24:24.207Z,3.35
2023-01-03T21:26:52.521Z,2.60
2023-01-03T21:29:21.884Z,5.65
2023-01-03T21:31:49.955Z,2.35
2023-01-03T21:34:21.011Z,2.80
2023-01-03T21:36:49.352Z,1.60
2023-01-03T21:39:17.514Z,2.38
2023-01-03T21:42:03.978Z,1.52
2023-01-03T21:44:31.855Z,6.22
2023-01-03T21:46:59.793Z,4.43
2023-01-03T21:49:27.652Z,1.52
2023-01-03T21:51:55.562Z,1.42
2023-01-03T21:54:23.438Z,1.48
2023-01-03T21:56:51.327Z,4.07
2023-01-03T21:59:19.270Z,1.05
2023-01-03T22:02:06.637Z,1.30
2023-01-03T22:04:34.784Z,1.60
2023-01-03T22:07:02.861Z,2.25
2023-01-03T22:09:50.432Z,1.20
2023-01-03T22:12:19.053Z,1.83
2023-01-03T22:14:47.163Z,1.88
2023-01-03T22:17:15.813Z,2.10
2023-01-03T22:19:43.969Z,2.42
2023-01-03T22:22:11.852Z,1.40
2023-01-03T22:24:39.838Z,1.70
2023-01-03T22:27:07.797Z,1.73
2023-01-03T22:29:35.740Z,2.30
2023-01-03T22:32:03.726Z,1.30
2023-01-03T22:34:31.686Z,3.50
2023-01-03T22:36:59.569Z,1.17
2023-01-03T22:39:27.427Z,2.10
2023-01-03T22:41:56.298Z,2.08
2023-01-03T22:44:24.119Z,1.42
2023-01-03T22:46:52.034Z,1.70
2023-01-03T22:49:19.850Z,1.00
2023-01-03T22:51:47.709Z,2.15
2023-01-03T22:54:15.566Z,1.27
2023-01-03T22:56:43.441Z,1.67
2023-01-03T22:59:11.398Z,2.70
2023-01-03T23:01:39.342Z,1.20
2023-01-03T23:04:07.313Z,1.90
2023-01-03T23:06:36.274Z,8.73
2023-01-03T23:09:04.786Z,1.50
2023-01-03T23:11:51.337Z,4.35
2023-01-03T23:14:21.434Z,1.27
2023-01-03T23:16:51.335Z,1.20
2023-01-03T23:19:26.644Z,4.03
2023-01-03T23:21:56.255Z,1.33
2023-01-03T23:24:25.149Z,1.88
2023-01-03T23:26:53.432Z,4.90
2023-01-03T23:29:22.151Z,1.00
2023-01-03T23:31:50.658Z,1.58
2023-01-03T23:34:19.390Z,5.53
2023-01-03T23:36:47.498Z,5.45
2023-01-03T23:39:17.926Z,5.57
2023-01-03T23:41:46.300Z,7.38
2023-01-03T23:44:14.520Z,1.40
2023-01-03T23:46:42.597Z,1.60
2023-01-03T23:49:12.693Z,2.67
2023-01-03T23:51:40.753Z,1.20
2023-01-03T23:54:09.062Z,1.15
2023-01-03T23:56:37.106Z,1.02
2023-01-03T23:59:05.436Z,2.58
